Terminal Aerodrome Forecast
Issued by NWS Cleveland, OH

Home | Current Version | Previous Version | Graphics & Text | Print | Product List | Glossary On
Versions: 1 2 3 4 5 6 7 8 9 10 11 12 13 14 15 16 17 18 19 20 21 22 23 24 25 26 27 28 29
953
FTUS41 KCLE 181607 AAA
TAFERI
TAF AMD
KERI 181607Z 1816/1912 25012G20KT 6SM BR OVC004
      TEMPO 1816/1819 4SM BR OVC007
     FM181900 25010KT P6SM OVC007
     FM190000 22008KT P6SM OVC012=

USA.gov is the U.S. government's official web portal to all federal, state and local government web resources and services.